Time;durP1;ratioP1;P1;durP2;ratioP2;P2;SDS_P1;SDS_P2;PMS_P1;PMS_P2;Temp;Humidity;BMP_temperature;BMP_pressure;BME280_temperature;BME280_humidity;BME280_pressure;Samples;Min_cycle;Max_cycle;Signal;HPM_P1;HPM_P2
2023/05/13 00:02:08;;;;;;;15.77;14.07;;;;;;;;;;5074376;28;20863;-67
2023/05/13 00:04:34;;;;;;;22.83;15.50;;;;;;;;;;5070264;28;20928;-67
2023/05/13 00:06:59;;;;;;;19.05;17.00;;;;;;;;;;5080446;28;20020;-67
2023/05/13 00:09:24;;;;;;;24.40;17.02;;;;;;;;;;5078325;28;20028;-67
2023/05/13 00:11:49;;;;;;;21.77;16.65;;;;;;;;;;5072044;28;20037;-67
2023/05/13 00:14:15;;;;;;;15.50;13.90;;;;;;;;;;5060692;28;20037;-67
2023/05/13 00:16:40;;;;;;;18.40;15.90;;;;;;;;;;5068474;28;20794;-67
2023/05/13 00:19:05;;;;;;;17.63;15.65;;;;;;;;;;5076726;28;20028;-67
2023/05/13 00:21:31;;;;;;;17.45;15.55;;;;;;;;;;5076581;28;20078;-67
2023/05/13 00:23:56;;;;;;;17.13;14.98;;;;;;;;;;5075478;28;20874;-66
2023/05/13 00:26:21;;;;;;;18.38;16.30;;;;;;;;;;5076601;28;20104;-66
2023/05/13 00:28:47;;;;;;;17.33;14.02;;;;;;;;;;5072617;28;20056;-67
2023/05/13 00:31:12;;;;;;;16.20;13.90;;;;;;;;;;5060710;28;20036;-67
2023/05/13 00:33:37;;;;;;;19.08;15.48;;;;;;;;;;5076527;28;20142;-67
2023/05/13 00:36:02;;;;;;;18.58;15.50;;;;;;;;;;5070531;28;20032;-67
2023/05/13 00:38:28;;;;;;;16.88;14.95;;;;;;;;;;5075595;28;20031;-67
2023/05/13 00:40:53;;;;;;;21.92;16.85;;;;;;;;;;5074016;28;20111;-67
2023/05/13 00:43:18;;;;;;;20.98;18.80;;;;;;;;;;5064875;28;20032;-66
2023/05/13 00:45:43;;;;;;;20.88;18.65;;;;;;;;;;5074142;28;20677;-66
2023/05/13 00:48:09;;;;;;;30.33;22.38;;;;;;;;;;5076910;28;20489;-67
2023/05/13 00:50:34;;;;;;;23.77;21.27;;;;;;;;;;5059682;28;20054;-66
2023/05/13 00:53:02;;;;;;;28.67;19.65;;;;;;;;;;5061626;28;20869;-67
2023/05/13 00:55:27;;;;;;;21.17;18.98;;;;;;;;;;5064575;28;20698;-67
2023/05/13 00:57:52;;;;;;;20.65;18.42;;;;;;;;;;5075845;28;20070;-67
2023/05/13 01:00:18;;;;;;;21.00;18.77;;;;;;;;;;5079112;28;20032;-67
2023/05/13 01:02:53;;;;;;;20.30;17.58;;;;;;;;;;5069537;28;20367;-67
2023/05/13 01:05:25;;;;;;;21.25;19.08;;;;;;;;;;5072748;28;20757;-67
2023/05/13 01:07:50;;;;;;;23.20;19.40;;;;;;;;;;5055710;28;20630;-67
2023/05/13 01:10:24;;;;;;;20.63;18.53;;;;;;;;;;5060988;28;20042;-67
2023/05/13 01:12:52;;;;;;;19.63;17.63;;;;;;;;;;5070204;28;20316;-67
2023/05/13 01:15:24;;;;;;;20.17;17.75;;;;;;;;;;5055773;28;20808;-67
2023/05/13 01:17:54;;;;;;;18.58;16.67;;;;;;;;;;5060446;28;20040;-67
2023/05/13 01:20:20;;;;;;;20.35;17.00;;;;;;;;;;5071456;28;20038;-67
2023/05/13 01:22:46;;;;;;;19.00;16.92;;;;;;;;;;5070431;28;20024;-67
2023/05/13 01:25:11;;;;;;;19.20;17.10;;;;;;;;;;5065889;28;20030;-67
2023/05/13 01:27:36;;;;;;;19.60;16.30;;;;;;;;;;5067715;28;20082;-67
2023/05/13 01:30:02;;;;;;;21.55;17.55;;;;;;;;;;5072712;28;20016;-67
2023/05/13 01:32:27;;;;;;;18.67;16.70;;;;;;;;;;5072675;28;20035;-67
2023/05/13 01:34:53;;;;;;;20.02;16.85;;;;;;;;;;5076270;28;20028;-67
2023/05/13 01:37:19;;;;;;;19.88;16.88;;;;;;;;;;5071232;28;20044;-67
2023/05/13 01:39:45;;;;;;;18.50;16.23;;;;;;;;;;5073293;28;20047;-67
2023/05/13 01:42:10;;;;;;;18.08;15.70;;;;;;;;;;5075205;28;20541;-67
2023/05/13 01:44:36;;;;;;;16.83;15.18;;;;;;;;;;5071157;28;20605;-67
2023/05/13 01:47:01;;;;;;;19.75;16.23;;;;;;;;;;5075295;28;20027;-67
2023/05/13 01:49:26;;;;;;;25.77;15.32;;;;;;;;;;5074373;28;20016;-67
2023/05/13 01:51:52;;;;;;;17.63;15.70;;;;;;;;;;5072377;28;20032;-67
2023/05/13 01:54:17;;;;;;;20.23;17.05;;;;;;;;;;5066529;28;20070;-66
2023/05/13 01:56:42;;;;;;;22.80;17.27;;;;;;;;;;5070011;28;20031;-67
2023/05/13 01:59:08;;;;;;;20.77;17.20;;;;;;;;;;5073983;28;20020;-66
2023/05/13 02:01:33;;;;;;;24.88;16.95;;;;;;;;;;5077507;28;20028;-66
2023/05/13 02:03:59;;;;;;;19.00;16.95;;;;;;;;;;5079242;28;20032;-67
2023/05/13 02:06:25;;;;;;;19.10;15.85;;;;;;;;;;5083690;28;20359;-67
2023/05/13 02:08:50;;;;;;;18.38;15.77;;;;;;;;;;5073180;28;20254;-66
2023/05/13 02:11:16;;;;;;;19.50;16.05;;;;;;;;;;5075324;28;20030;-67
2023/05/13 02:13:41;;;;;;;19.17;15.95;;;;;;;;;;5075936;28;20027;-67
2023/05/13 02:16:06;;;;;;;25.25;16.63;;;;;;;;;;5072390;28;20830;-67
2023/05/13 02:18:31;;;;;;;17.52;15.68;;;;;;;;;;5076624;28;20027;-67
2023/05/13 02:20:57;;;;;;;19.55;15.98;;;;;;;;;;5071091;28;20530;-67
2023/05/13 02:23:22;;;;;;;17.70;14.82;;;;;;;;;;5069420;28;20082;-67
2023/05/13 02:25:47;;;;;;;21.08;15.73;;;;;;;;;;5072054;28;20016;-67
2023/05/13 02:28:13;;;;;;;19.33;14.88;;;;;;;;;;5070582;28;20406;-67
2023/05/13 02:30:38;;;;;;;19.60;14.88;;;;;;;;;;5074819;28;20031;-67
2023/05/13 02:33:03;;;;;;;17.25;14.63;;;;;;;;;;5071512;28;20772;-67
2023/05/13 02:35:29;;;;;;;17.63;14.30;;;;;;;;;;5060964;28;20074;-66
2023/05/13 02:37:54;;;;;;;22.63;14.07;;;;;;;;;;5059429;28;20055;-66
2023/05/13 02:40:20;;;;;;;20.67;13.25;;;;;;;;;;5073415;28;20810;-67
2023/05/13 02:42:45;;;;;;;17.73;15.77;;;;;;;;;;5064358;28;20047;-67
2023/05/13 02:45:10;;;;;;;17.60;14.57;;;;;;;;;;5075031;28;20020;-67
2023/05/13 02:47:36;;;;;;;16.90;14.07;;;;;;;;;;5074761;28;20132;-67
2023/05/13 02:50:04;;;;;;;17.92;13.75;;;;;;;;;;5070081;28;20516;-67
2023/05/13 02:52:30;;;;;;;15.98;14.40;;;;;;;;;;5067378;28;20036;-67
2023/05/13 02:54:55;;;;;;;17.40;14.20;;;;;;;;;;5071876;28;20028;-67
2023/05/13 02:57:20;;;;;;;17.20;14.73;;;;;;;;;;5077069;28;20073;-67
2023/05/13 02:59:45;;;;;;;16.90;14.38;;;;;;;;;;5080688;28;20040;-67
2023/05/13 03:02:11;;;;;;;16.23;14.57;;;;;;;;;;5076200;28;20071;-67
2023/05/13 03:04:36;;;;;;;15.75;14.10;;;;;;;;;;5075299;28;20061;-67
2023/05/13 03:07:01;;;;;;;18.73;15.07;;;;;;;;;;5074474;28;20131;-67
2023/05/13 03:09:26;;;;;;;18.17;15.57;;;;;;;;;;5073549;28;20009;-67
2023/05/13 03:11:52;;;;;;;18.00;15.25;;;;;;;;;;5077974;28;20482;-66
2023/05/13 03:14:17;;;;;;;20.60;15.68;;;;;;;;;;5077177;28;20021;-67
2023/05/13 03:16:43;;;;;;;17.77;15.93;;;;;;;;;;5075496;28;20039;-67
2023/05/13 03:19:08;;;;;;;20.98;16.25;;;;;;;;;;5076841;28;20121;-67
2023/05/13 03:21:34;;;;;;;21.77;16.63;;;;;;;;;;5075644;28;20106;-67
2023/05/13 03:23:59;;;;;;;19.85;17.67;;;;;;;;;;5073865;28;20827;-67
2023/05/13 03:26:25;;;;;;;26.02;16.98;;;;;;;;;;5077963;28;20016;-67
2023/05/13 03:28:50;;;;;;;25.13;16.85;;;;;;;;;;5075158;28;20033;-67
2023/05/13 03:31:15;;;;;;;21.42;17.00;;;;;;;;;;5077625;28;20138;-67
2023/05/13 03:33:41;;;;;;;18.95;16.98;;;;;;;;;;5077790;28;20610;-67
2023/05/13 03:36:06;;;;;;;21.60;19.27;;;;;;;;;;5079486;28;20024;-67
2023/05/13 03:38:31;;;;;;;20.90;18.77;;;;;;;;;;5080239;28;20016;-67
2023/05/13 03:40:57;;;;;;;23.20;20.50;;;;;;;;;;5077135;28;20030;-67
2023/05/13 03:43:22;;;;;;;24.73;20.15;;;;;;;;;;5078745;28;20028;-66
2023/05/13 03:45:49;;;;;;;23.33;18.77;;;;;;;;;;5076552;28;20088;-67
2023/05/13 03:48:14;;;;;;;24.75;17.52;;;;;;;;;;5080863;28;20020;-67
2023/05/13 03:50:40;;;;;;;25.23;20.27;;;;;;;;;;5080683;28;20130;-67
2023/05/13 03:53:06;;;;;;;27.33;21.38;;;;;;;;;;5081711;28;20036;-67
2023/05/13 03:55:31;;;;;;;24.98;21.20;;;;;;;;;;5070814;28;20664;-67
2023/05/13 03:57:56;;;;;;;22.85;20.52;;;;;;;;;;5078514;28;20020;-67
2023/05/13 04:00:22;;;;;;;23.17;20.83;;;;;;;;;;5082968;28;20050;-67
2023/05/13 04:02:47;;;;;;;25.20;22.10;;;;;;;;;;5083292;28;20036;-67
2023/05/13 04:05:12;;;;;;;23.27;20.85;;;;;;;;;;5072730;28;21313;-66
2023/05/13 04:07:38;;;;;;;25.50;21.73;;;;;;;;;;5074792;28;20039;-66
2023/05/13 04:10:04;;;;;;;24.02;21.48;;;;;;;;;;5064045;28;20871;-66
2023/05/13 04:12:32;;;;;;;22.73;19.45;;;;;;;;;;5063535;28;20021;-66
2023/05/13 04:14:57;;;;;;;21.42;19.17;;;;;;;;;;5067936;28;20034;-66
2023/05/13 04:17:22;;;;;;;21.75;19.50;;;;;;;;;;5061498;28;20171;-67
2023/05/13 04:19:51;;;;;;;24.98;18.13;;;;;;;;;;5060964;28;20111;-66
2023/05/13 04:22:16;;;;;;;20.52;17.88;;;;;;;;;;5067605;28;20052;-66
2023/05/13 04:24:41;;;;;;;20.17;17.33;;;;;;;;;;5063416;28;20954;-67
2023/05/13 04:27:06;;;;;;;21.75;18.33;;;;;;;;;;5063409;28;20364;-66
2023/05/13 04:29:32;;;;;;;20.20;17.67;;;;;;;;;;5072352;28;20024;-66
2023/05/13 04:31:57;;;;;;;19.75;17.15;;;;;;;;;;5050347;28;20135;-67
2023/05/13 04:34:22;;;;;;;19.02;17.02;;;;;;;;;;5060452;28;20071;-67
2023/05/13 04:36:47;;;;;;;22.13;17.67;;;;;;;;;;5076602;28;20040;-67
2023/05/13 04:39:13;;;;;;;20.98;17.10;;;;;;;;;;5061673;28;20119;-66
2023/05/13 04:41:38;;;;;;;20.60;18.38;;;;;;;;;;5063756;28;20927;-67
2023/05/13 04:44:05;;;;;;;20.25;18.17;;;;;;;;;;5073251;28;20020;-67
2023/05/13 04:46:30;;;;;;;19.92;17.90;;;;;;;;;;5078466;28;20023;-67
2023/05/13 04:48:55;;;;;;;20.10;18.00;;;;;;;;;;5069893;28;20478;-67
2023/05/13 04:51:20;;;;;;;20.42;16.90;;;;;;;;;;5056944;28;20020;-67
2023/05/13 04:53:45;;;;;;;21.38;16.85;;;;;;;;;;5068074;28;20032;-67
2023/05/13 04:56:11;;;;;;;20.55;17.67;;;;;;;;;;5073013;28;20020;-67
2023/05/13 04:58:36;;;;;;;20.35;18.25;;;;;;;;;;5061844;28;20028;-67
2023/05/13 05:01:01;;;;;;;23.60;18.35;;;;;;;;;;5061033;28;20023;-67
2023/05/13 05:03:27;;;;;;;25.23;18.70;;;;;;;;;;5075611;28;20023;-66
2023/05/13 05:05:52;;;;;;;25.45;15.57;;;;;;;;;;5051777;28;20785;-66
2023/05/13 05:08:17;;;;;;;21.05;17.42;;;;;;;;;;5074049;28;20020;-66
2023/05/13 05:10:42;;;;;;;19.27;15.88;;;;;;;;;;5076868;28;20129;-66
2023/05/13 05:13:08;;;;;;;20.20;15.77;;;;;;;;;;5066965;28;20028;-66
2023/05/13 05:15:34;;;;;;;20.65;15.68;;;;;;;;;;5077968;28;20050;-66
2023/05/13 05:17:59;;;;;;;17.90;14.60;;;;;;;;;;5064883;28;20028;-67
2023/05/13 05:20:24;;;;;;;17.50;15.45;;;;;;;;;;5073738;28;20067;-67
2023/05/13 05:22:50;;;;;;;14.88;13.27;;;;;;;;;;5065553;28;20066;-67
2023/05/13 05:25:15;;;;;;;18.13;12.75;;;;;;;;;;5074172;28;20032;-66
2023/05/13 05:27:40;;;;;;;14.88;13.10;;;;;;;;;;5068126;28;20024;-67
2023/05/13 05:30:06;;;;;;;16.52;13.02;;;;;;;;;;5076578;28;20024;-67
2023/05/13 05:32:32;;;;;;;14.25;12.60;;;;;;;;;;5069594;28;21743;-67
2023/05/13 05:35:00;;;;;;;16.23;14.18;;;;;;;;;;5055021;28;20740;-67
2023/05/13 05:37:26;;;;;;;15.52;13.93;;;;;;;;;;5078370;28;20040;-67
2023/05/13 05:39:51;;;;;;;15.25;13.02;;;;;;;;;;5076714;28;20078;-67
2023/05/13 05:42:17;;;;;;;17.58;14.52;;;;;;;;;;5073460;28;20371;-67
2023/05/13 05:44:42;;;;;;;19.00;12.85;;;;;;;;;;5072095;28;20017;-67
2023/05/13 05:47:07;;;;;;;15.48;13.48;;;;;;;;;;5071812;28;20663;-67
2023/05/13 05:49:33;;;;;;;16.15;13.90;;;;;;;;;;5074841;28;20514;-67
2023/05/13 05:51:58;;;;;;;15.63;13.27;;;;;;;;;;5063023;28;20027;-67
2023/05/13 05:54:23;;;;;;;16.08;12.80;;;;;;;;;;5071290;28;20024;-66
2023/05/13 05:56:48;;;;;;;15.00;13.40;;;;;;;;;;5068150;28;20408;-66
2023/05/13 05:59:14;;;;;;;18.27;13.07;;;;;;;;;;5082872;28;20050;-66
2023/05/13 06:01:39;;;;;;;13.98;12.57;;;;;;;;;;5075193;28;20340;-66
2023/05/13 06:04:05;;;;;;;15.40;13.88;;;;;;;;;;5068592;28;20529;-66
2023/05/13 06:06:31;;;;;;;18.27;13.70;;;;;;;;;;5077410;28;20073;-66
2023/05/13 06:08:56;;;;;;;19.35;13.70;;;;;;;;;;5072894;28;20022;-66
2023/05/13 06:11:21;;;;;;;16.05;14.23;;;;;;;;;;5064977;28;20503;-66
2023/05/13 06:13:47;;;;;;;15.32;13.30;;;;;;;;;;5056833;28;20042;-66
2023/05/13 06:16:12;;;;;;;15.15;13.45;;;;;;;;;;5074415;28;20043;-66
2023/05/13 06:18:37;;;;;;;15.50;12.32;;;;;;;;;;5079772;28;20103;-66
2023/05/13 06:21:03;;;;;;;16.85;12.65;;;;;;;;;;5082592;28;20032;-66
2023/05/13 06:23:28;;;;;;;16.77;11.30;;;;;;;;;;5068451;28;20032;-66
2023/05/13 06:25:53;;;;;;;14.38;12.65;;;;;;;;;;5044044;28;20028;-66
2023/05/13 06:28:19;;;;;;;13.57;12.18;;;;;;;;;;5043717;28;20921;-66
2023/05/13 06:30:44;;;;;;;12.90;11.60;;;;;;;;;;5046959;28;20081;-66
2023/05/13 06:33:11;;;;;;;18.45;11.60;;;;;;;;;;5043925;28;20103;-66
2023/05/13 06:35:36;;;;;;;13.65;11.48;;;;;;;;;;5050439;28;20099;-67
2023/05/13 06:38:02;;;;;;;14.45;11.18;;;;;;;;;;5047619;28;20134;-66
2023/05/13 06:40:27;;;;;;;13.10;10.75;;;;;;;;;;5043479;28;20135;-66
2023/05/13 06:42:52;;;;;;;15.90;11.43;;;;;;;;;;5039342;28;20027;-66
2023/05/13 06:45:21;;;;;;;17.48;12.27;;;;;;;;;;5048055;28;20989;-66
2023/05/13 06:47:47;;;;;;;13.82;11.30;;;;;;;;;;5046374;28;20139;-66
2023/05/13 06:50:12;;;;;;;14.93;11.30;;;;;;;;;;5049087;28;20070;-65
2023/05/13 06:52:37;;;;;;;13.85;10.55;;;;;;;;;;5054640;28;20028;-66
2023/05/13 06:55:03;;;;;;;13.40;9.95;;;;;;;;;;5050516;28;20082;-65
2023/05/13 06:57:28;;;;;;;14.90;13.07;;;;;;;;;;5047014;28;20073;-66
2023/05/13 06:59:53;;;;;;;13.77;10.00;;;;;;;;;;5056094;28;20036;-66
2023/05/13 07:02:19;;;;;;;21.60;10.40;;;;;;;;;;5056035;28;20043;-66
2023/05/13 07:04:44;;;;;;;16.08;9.90;;;;;;;;;;5056708;28;20028;-66
2023/05/13 07:07:09;;;;;;;12.43;9.70;;;;;;;;;;5042196;28;20908;-66
2023/05/13 07:09:35;;;;;;;11.68;9.05;;;;;;;;;;5052334;28;20063;-66
2023/05/13 07:12:00;;;;;;;16.08;11.73;;;;;;;;;;5053650;28;20909;-66
2023/05/13 07:14:25;;;;;;;17.27;10.18;;;;;;;;;;5053853;28;20020;-65
2023/05/13 07:16:51;;;;;;;13.52;10.77;;;;;;;;;;5055395;28;20024;-66
2023/05/13 07:19:16;;;;;;;10.60;9.35;;;;;;;;;;5050471;28;20934;-66
2023/05/13 07:21:41;;;;;;;15.52;11.10;;;;;;;;;;5054240;28;20024;-66
2023/05/13 07:24:07;;;;;;;17.70;10.73;;;;;;;;;;5055040;28;20962;-66
2023/05/13 07:26:32;;;;;;;14.50;11.30;;;;;;;;;;5059445;28;20289;-66
2023/05/13 07:28:58;;;;;;;12.88;11.52;;;;;;;;;;5056593;28;20490;-66
2023/05/13 07:31:24;;;;;;;14.52;10.45;;;;;;;;;;5047903;28;20483;-65
2023/05/13 07:33:49;;;;;;;15.88;11.00;;;;;;;;;;5057396;28;20865;-65
2023/05/13 07:36:14;;;;;;;13.23;10.95;;;;;;;;;;5069889;28;20038;-66
2023/05/13 07:38:39;;;;;;;16.38;11.35;;;;;;;;;;5065249;28;20781;-66
2023/05/13 07:41:05;;;;;;;12.15;10.13;;;;;;;;;;5060487;28;20028;-66
2023/05/13 07:43:33;;;;;;;15.90;11.43;;;;;;;;;;5041099;28;20751;-66
2023/05/13 07:45:58;;;;;;;14.73;10.10;;;;;;;;;;5064890;28;20081;-66
2023/05/13 07:48:24;;;;;;;13.88;10.90;;;;;;;;;;5062956;28;20047;-66
2023/05/13 07:50:49;;;;;;;14.18;10.68;;;;;;;;;;5071218;28;20759;-66
2023/05/13 07:53:15;;;;;;;15.95;11.93;;;;;;;;;;5074844;28;20519;-66
2023/05/13 07:55:40;;;;;;;13.88;11.15;;;;;;;;;;5068060;28;20059;-66
2023/05/13 07:58:05;;;;;;;14.15;10.65;;;;;;;;;;5070972;28;20030;-66
2023/05/13 08:00:30;;;;;;;15.20;11.13;;;;;;;;;;5073453;28;20065;-66
2023/05/13 08:02:56;;;;;;;12.90;11.38;;;;;;;;;;5062270;28;20032;-66
2023/05/13 08:05:21;;;;;;;13.25;10.25;;;;;;;;;;5063998;28;20032;-65
2023/05/13 08:07:46;;;;;;;11.70;10.23;;;;;;;;;;5069918;28;20565;-66
2023/05/13 08:10:11;;;;;;;12.57;10.32;;;;;;;;;;5070517;28;21165;-66
2023/05/13 08:12:39;;;;;;;11.57;10.05;;;;;;;;;;5067825;28;20032;-66
2023/05/13 08:15:04;;;;;;;12.27;10.30;;;;;;;;;;5067762;28;20783;-65
2023/05/13 08:17:30;;;;;;;14.95;9.80;;;;;;;;;;5048752;28;20067;-66
2023/05/13 08:19:55;;;;;;;14.27;11.98;;;;;;;;;;5067306;28;20028;-66
2023/05/13 08:22:20;;;;;;;12.77;11.43;;;;;;;;;;5068817;28;20028;-66
2023/05/13 08:24:45;;;;;;;21.95;11.23;;;;;;;;;;5067080;28;20316;-66
2023/05/13 08:27:11;;;;;;;13.60;11.85;;;;;;;;;;5065102;28;20923;-65
2023/05/13 08:29:37;;;;;;;11.88;10.60;;;;;;;;;;5067214;28;20057;-66
2023/05/13 08:32:02;;;;;;;15.45;10.45;;;;;;;;;;5073820;28;20032;-66
2023/05/13 08:34:27;;;;;;;14.27;10.15;;;;;;;;;;5068177;28;20042;-66
2023/05/13 08:36:53;;;;;;;21.23;11.82;;;;;;;;;;5072007;28;20062;-66
2023/05/13 08:39:18;;;;;;;14.65;12.02;;;;;;;;;;5067725;28;20063;-65
2023/05/13 08:41:43;;;;;;;12.63;10.38;;;;;;;;;;5064923;28;20127;-66
2023/05/13 08:44:10;;;;;;;18.30;11.98;;;;;;;;;;5073676;28;20101;-66
2023/05/13 08:46:36;;;;;;;17.67;11.68;;;;;;;;;;5068051;28;20536;-66
2023/05/13 08:49:01;;;;;;;16.77;13.10;;;;;;;;;;5077275;28;20027;-67
2023/05/13 08:51:27;;;;;;;15.95;11.25;;;;;;;;;;5083410;28;20374;-67
2023/05/13 08:53:52;;;;;;;14.27;10.80;;;;;;;;;;5091546;28;20035;-66
2023/05/13 08:56:17;;;;;;;18.52;11.10;;;;;;;;;;5091976;28;20471;-66
2023/05/13 08:58:43;;;;;;;12.38;11.10;;;;;;;;;;5090848;28;20024;-66
2023/05/13 09:01:08;;;;;;;19.65;11.57;;;;;;;;;;5091432;28;20024;-66
2023/05/13 09:03:33;;;;;;;12.70;10.90;;;;;;;;;;5085535;28;20567;-66
2023/05/13 09:05:59;;;;;;;18.02;10.02;;;;;;;;;;5080382;28;20028;-66
2023/05/13 09:08:24;;;;;;;17.35;11.88;;;;;;;;;;5090698;28;20032;-66
2023/05/13 09:10:50;;;;;;;20.02;11.38;;;;;;;;;;5090625;28;20046;-66
2023/05/13 09:13:16;;;;;;;12.63;11.43;;;;;;;;;;5091273;28;20024;-65
2023/05/13 09:15:42;;;;;;;14.38;10.77;;;;;;;;;;5090913;28;20466;-65
2023/05/13 09:18:07;;;;;;;12.82;10.50;;;;;;;;;;5090719;28;20517;-66
2023/05/13 09:20:33;;;;;;;17.80;11.00;;;;;;;;;;5087245;28;20439;-66
2023/05/13 09:22:59;;;;;;;16.20;11.25;;;;;;;;;;5091154;28;20432;-66
2023/05/13 09:25:25;;;;;;;15.13;10.02;;;;;;;;;;5087529;28;20095;-66
2023/05/13 09:28:00;;;;;;;13.55;11.43;;;;;;;;;;5090997;28;20501;-65
2023/05/13 09:30:31;;;;;;;12.10;10.85;;;;;;;;;;5077044;28;20493;-66
2023/05/13 09:33:16;;;;;;;15.43;10.70;;;;;;;;;;5077645;28;20051;-66
2023/05/13 09:35:41;;;;;;;11.50;10.30;;;;;;;;;;5090739;28;20020;-66
2023/05/13 09:38:16;;;;;;;13.60;10.05;;;;;;;;;;5090715;28;20398;-65
2023/05/13 09:41:02;;;;;;;17.98;9.98;;;;;;;;;;5090508;28;20430;-65
2023/05/13 09:43:30;;;;;;;16.27;9.93;;;;;;;;;;5084316;28;20479;-66
2023/05/13 09:46:03;;;;;;;11.05;8.60;;;;;;;;;;5084182;28;20085;-66
2023/05/13 09:48:29;;;;;;;9.75;8.73;;;;;;;;;;5077682;28;20028;-66
2023/05/13 09:50:56;;;;;;;12.27;9.00;;;;;;;;;;5089063;28;20500;-65
2023/05/13 09:53:21;;;;;;;14.15;9.32;;;;;;;;;;5078984;28;20106;-66
2023/05/13 09:55:47;;;;;;;10.57;8.75;;;;;;;;;;5088429;28;20107;-66
2023/05/13 09:58:13;;;;;;;12.05;8.00;;;;;;;;;;5089362;28;20103;-66
2023/05/13 10:00:40;;;;;;;11.18;8.60;;;;;;;;;;5091003;28;20080;-66
2023/05/13 10:03:06;;;;;;;11.15;8.13;;;;;;;;;;5091041;28;20072;-66
2023/05/13 10:05:31;;;;;;;10.52;7.63;;;;;;;;;;5089158;28;20099;-66
2023/05/13 10:07:58;;;;;;;10.95;7.60;;;;;;;;;;5090894;28;20032;-66
2023/05/13 10:10:24;;;;;;;12.18;8.55;;;;;;;;;;5090906;28;20070;-66
2023/05/13 10:12:50;;;;;;;25.13;8.77;;;;;;;;;;5088518;28;20425;-65
2023/05/13 10:15:15;;;;;;;10.02;6.88;;;;;;;;;;5090102;28;20040;-65
2023/05/13 10:17:41;;;;;;;8.80;6.70;;;;;;;;;;5089944;28;20363;-65
2023/05/13 10:20:06;;;;;;;11.60;6.88;;;;;;;;;;5077505;28;20494;-66
2023/05/13 10:22:34;;;;;;;9.10;6.65;;;;;;;;;;5090018;28;20044;-66
2023/05/13 10:25:00;;;;;;;8.98;6.20;;;;;;;;;;5090510;28;20050;-66
2023/05/13 10:27:29;;;;;;;10.73;5.75;;;;;;;;;;5089739;28;20028;-66
2023/05/13 10:29:55;;;;;;;10.13;7.30;;;;;;;;;;5090311;28;20056;-70
2023/05/13 10:32:22;;;;;;;9.52;7.35;;;;;;;;;;5084722;28;20034;-66
2023/05/13 10:34:49;;;;;;;8.40;5.10;;;;;;;;;;5077388;28;20032;-65
2023/05/13 10:37:43;;;;;;;8.70;5.10;;;;;;;;;;5080907;28;20457;-66
2023/05/13 10:40:11;;;;;;;7.10;5.53;;;;;;;;;;5008572;28;20085;-66
2023/05/13 10:42:43;;;;;;;9.95;5.97;;;;;;;;;;5089413;28;20114;-65
2023/05/13 10:45:08;;;;;;;8.15;5.47;;;;;;;;;;5084511;28;20471;-65
2023/05/13 10:47:35;;;;;;;11.88;6.32;;;;;;;;;;5089424;28;20032;-65
2023/05/13 10:50:04;;;;;;;12.50;5.75;;;;;;;;;;5089276;28;20044;-64
2023/05/13 10:53:03;;;;;;;9.90;6.18;;;;;;;;;;5087496;28;20032;-66
2023/05/13 10:55:28;;;;;;;13.98;5.15;;;;;;;;;;5041297;28;20123;-65
2023/05/13 10:58:06;;;;;;;8.95;5.38;;;;;;;;;;5088893;28;20115;-64
2023/05/13 11:00:31;;;;;;;12.55;5.47;;;;;;;;;;5080733;28;20032;-65
2023/05/13 11:03:07;;;;;;;13.88;5.32;;;;;;;;;;5088940;28;20028;-66
2023/05/13 11:05:32;;;;;;;11.80;5.70;;;;;;;;;;5089567;28;20378;-66
2023/05/13 11:07:57;;;;;;;10.45;5.63;;;;;;;;;;5089372;28;20022;-64
2023/05/13 11:10:28;;;;;;;13.55;5.60;;;;;;;;;;5082713;28;20036;-64
2023/05/13 11:13:06;;;;;;;7.50;4.85;;;;;;;;;;5090237;28;20060;-65
2023/05/13 11:15:44;;;;;;;130.95;31.73;;;;;;;;;;5076974;28;20410;-64
2023/05/13 11:18:11;;;;;;;33.63;14.90;;;;;;;;;;5091606;28;20107;-65
2023/05/13 11:20:36;;;;;;;13.55;7.20;;;;;;;;;;5092498;28;20355;-66
2023/05/13 11:23:02;;;;;;;37.78;14.95;;;;;;;;;;5091909;28;20039;-65
2023/05/13 11:25:27;;;;;;;16.67;5.90;;;;;;;;;;5093260;28;20119;-66
2023/05/13 11:27:52;;;;;;;11.57;4.75;;;;;;;;;;5092767;28;20277;-65
2023/05/13 11:30:22;;;;;;;6.28;4.05;;;;;;;;;;5092786;28;20024;-65
2023/05/13 11:32:50;;;;;;;9.88;4.18;;;;;;;;;;5074428;28;20051;-65
2023/05/13 11:35:19;;;;;;;8.27;4.32;;;;;;;;;;5092880;28;20078;-64
2023/05/13 11:37:44;;;;;;;6.20;3.83;;;;;;;;;;5091185;28;20060;-66
2023/05/13 11:40:10;;;;;;;8.27;4.20;;;;;;;;;;5092346;28;20501;-64
2023/05/13 11:42:37;;;;;;;5.95;3.85;;;;;;;;;;5093479;28;20027;-66
2023/05/13 11:45:04;;;;;;;6.80;4.30;;;;;;;;;;5092805;28;20028;-66
2023/05/13 11:47:29;;;;;;;10.10;3.58;;;;;;;;;;5091625;28;20028;-66
2023/05/13 11:49:56;;;;;;;22.52;3.97;;;;;;;;;;5092640;28;20501;-65
2023/05/13 11:52:21;;;;;;;5.45;3.40;;;;;;;;;;5092757;28;20028;-65
2023/05/13 11:54:49;;;;;;;10.60;4.57;;;;;;;;;;5092450;28;20043;-65
2023/05/13 11:57:15;;;;;;;10.40;4.03;;;;;;;;;;5092220;28;20053;-65
2023/05/13 11:59:40;;;;;;;9.88;3.47;;;;;;;;;;5087427;28;20111;-65
2023/05/13 12:02:05;;;;;;;5.57;3.50;;;;;;;;;;5079778;28;20181;-65
2023/05/13 12:04:31;;;;;;;26.50;4.50;;;;;;;;;;5092018;28;20020;-64
2023/05/13 12:06:56;;;;;;;9.17;3.87;;;;;;;;;;5091432;28;20387;-65
2023/05/13 12:09:22;;;;;;;5.95;3.13;;;;;;;;;;5091639;28;20368;-65
2023/05/13 12:11:48;;;;;;;6.90;3.85;;;;;;;;;;5092099;28;20048;-64
2023/05/13 12:14:14;;;;;;;8.93;3.72;;;;;;;;;;5072654;28;20016;-65
2023/05/13 12:16:40;;;;;;;6.90;4.03;;;;;;;;;;5091650;28;20039;-64
2023/05/13 12:19:06;;;;;;;7.90;4.00;;;;;;;;;;5092711;28;20081;-65
2023/05/13 12:21:31;;;;;;;6.28;3.45;;;;;;;;;;5091736;28;20409;-64
2023/05/13 12:23:57;;;;;;;10.57;3.70;;;;;;;;;;5091723;28;20111;-64
2023/05/13 12:26:23;;;;;;;13.23;4.03;;;;;;;;;;5092186;28;20099;-65
2023/05/13 12:28:48;;;;;;;7.43;3.70;;;;;;;;;;5091499;28;20447;-65
2023/05/13 12:31:14;;;;;;;7.63;3.80;;;;;;;;;;5082449;28;20034;-65
2023/05/13 12:33:41;;;;;;;5.00;3.47;;;;;;;;;;5091871;28;20290;-64
2023/05/13 12:36:13;;;;;;;6.50;3.72;;;;;;;;;;5092266;28;20036;-65
2023/05/13 12:38:39;;;;;;;4.30;3.20;;;;;;;;;;5084109;28;20024;-64
2023/05/13 12:41:13;;;;;;;10.93;4.00;;;;;;;;;;5091108;28;20524;-65
2023/05/13 12:43:39;;;;;;;6.30;3.45;;;;;;;;;;5091792;28;20023;-64
2023/05/13 12:46:05;;;;;;;6.30;3.85;;;;;;;;;;5082099;28;20027;-65
2023/05/13 12:48:31;;;;;;;9.43;3.45;;;;;;;;;;5091122;28;20078;-64
2023/05/13 12:50:57;;;;;;;5.70;4.45;;;;;;;;;;5088043;28;20069;-64
2023/05/13 12:53:22;;;;;;;8.23;3.50;;;;;;;;;;5087332;28;20699;-65
2023/05/13 12:55:47;;;;;;;9.03;4.53;;;;;;;;;;5091184;28;20273;-64
2023/05/13 12:58:12;;;;;;;13.83;4.83;;;;;;;;;;5091377;28;20106;-68
2023/05/13 13:00:38;;;;;;;5.10;3.50;;;;;;;;;;5091307;28;20411;-65
2023/05/13 13:03:03;;;;;;;8.38;4.00;;;;;;;;;;5089660;28;20099;-66
2023/05/13 13:05:28;;;;;;;6.97;4.47;;;;;;;;;;5091460;28;20106;-66
2023/05/13 13:07:54;;;;;;;7.22;3.88;;;;;;;;;;5091361;28;20039;-66
2023/05/13 13:10:19;;;;;;;5.60;3.60;;;;;;;;;;5091127;28;20020;-65
2023/05/13 13:12:44;;;;;;;10.02;4.55;;;;;;;;;;5087651;28;20065;-65
2023/05/13 13:15:10;;;;;;;8.73;4.22;;;;;;;;;;5064123;28;20847;-65
2023/05/13 13:17:36;;;;;;;6.70;4.50;;;;;;;;;;5090329;28;20466;-65
2023/05/13 13:20:03;;;;;;;7.05;3.80;;;;;;;;;;5089913;28;20028;-65
2023/05/13 13:22:28;;;;;;;8.23;4.63;;;;;;;;;;5091619;28;20042;-64
2023/05/13 13:24:54;;;;;;;8.20;5.18;;;;;;;;;;5089027;28;20398;-65
2023/05/13 13:27:19;;;;;;;8.88;4.20;;;;;;;;;;5089609;28;20047;-65
2023/05/13 13:29:44;;;;;;;5.25;3.40;;;;;;;;;;5085053;28;20475;-65
2023/05/13 13:32:10;;;;;;;7.43;4.10;;;;;;;;;;5091365;28;20434;-65
2023/05/13 13:34:36;;;;;;;7.85;4.60;;;;;;;;;;5087651;28;20276;-64
2023/05/13 13:37:02;;;;;;;9.40;4.40;;;;;;;;;;5090601;28;20024;-65
2023/05/13 13:39:27;;;;;;;9.52;4.25;;;;;;;;;;5090243;28;20043;-65
2023/05/13 13:41:52;;;;;;;9.20;4.38;;;;;;;;;;5090644;28;20024;-65
2023/05/13 13:44:17;;;;;;;7.63;4.80;;;;;;;;;;5087737;28;20024;-66
2023/05/13 13:46:43;;;;;;;8.00;3.80;;;;;;;;;;5085425;28;20829;-65
2023/05/13 13:49:08;;;;;;;12.80;4.85;;;;;;;;;;5086120;28;20313;-63
2023/05/13 13:51:33;;;;;;;10.60;4.70;;;;;;;;;;5085921;28;20572;-65
2023/05/13 13:54:02;;;;;;;7.13;4.77;;;;;;;;;;5085974;28;20036;-64
2023/05/13 13:56:28;;;;;;;8.68;4.40;;;;;;;;;;5082545;28;20320;-64
2023/05/13 13:58:53;;;;;;;8.15;4.57;;;;;;;;;;5087296;28;20475;-65
2023/05/13 14:01:18;;;;;;;7.53;4.30;;;;;;;;;;5086761;28;20612;-66
2023/05/13 14:03:44;;;;;;;6.20;3.58;;;;;;;;;;5086755;28;20282;-63
2023/05/13 14:06:09;;;;;;;8.10;3.90;;;;;;;;;;5086377;28;20494;-63
2023/05/13 14:08:35;;;;;;;7.90;3.80;;;;;;;;;;5087259;28;20410;-63
2023/05/13 14:11:00;;;;;;;5.57;3.20;;;;;;;;;;5083791;28;20509;-63
2023/05/13 14:13:26;;;;;;;5.60;3.40;;;;;;;;;;5085800;28;20020;-66
2023/05/13 14:15:51;;;;;;;5.38;3.70;;;;;;;;;;5085696;28;20775;-65
2023/05/13 14:18:16;;;;;;;10.00;4.27;;;;;;;;;;5087519;28;20073;-65